Time;durP1;ratioP1;P1;durP2;ratioP2;P2;SDS_P1;SDS_P2;PMS_P1;PMS_P2;Temp;Humidity;BMP_temperature;BMP_pressure;BME280_temperature;BME280_humidity;BME280_pressure;Samples;Min_cycle;Max_cycle;Signal;HPM_P1;HPM_P2
2022/04/10 00:01:32;;;;;;;17.27;3.57;;;3.30;87.30;;;;;;4880081;29;20186;-91
2022/04/10 00:03:58;;;;;;;14.53;3.57;;;3.30;87.30;;;;;;4880158;29;20178;-91
2022/04/10 00:06:24;;;;;;;17.77;4.23;;;3.40;87.20;;;;;;4881258;29;20197;-91
2022/04/10 00:08:50;;;;;;;15.20;3.07;;;3.40;87.40;;;;;;4879773;29;20300;-91
2022/04/10 00:11:16;;;;;;;20.77;3.43;;;3.40;87.30;;;;;;4880820;29;20719;-91
2022/04/10 00:13:41;;;;;;;16.90;3.90;;;3.40;87.30;;;;;;4879926;29;20178;-91
2022/04/10 00:16:08;;;;;;;17.00;3.47;;;3.40;87.00;;;;;;4880191;29;20194;-90
2022/04/10 00:18:37;;;;;;;13.33;3.90;;;3.30;86.90;;;;;;4879956;29;20224;-91
2022/04/10 00:21:04;;;;;;;12.07;3.20;;;3.30;87.20;;;;;;4879802;29;20186;-91
2022/04/10 00:23:30;;;;;;;13.70;3.13;;;3.30;86.90;;;;;;4879871;29;20224;-91
2022/04/10 00:25:55;;;;;;;11.27;3.00;;;3.20;86.90;;;;;;4880885;29;20175;-91
2022/04/10 00:28:21;;;;;;;15.73;4.00;;;3.20;86.70;;;;;;4879941;29;20213;-91
2022/04/10 00:30:47;;;;;;;19.30;3.63;;;3.20;86.60;;;;;;4879661;29;20189;-91
2022/04/10 00:33:12;;;;;;;7.43;2.57;;;3.10;86.70;;;;;;4879465;29;20559;-90
2022/04/10 00:35:38;;;;;;;8.80;2.63;;;3.20;86.70;;;;;;4880737;29;20182;-90
2022/04/10 00:38:04;;;;;;;7.83;2.80;;;3.10;87.00;;;;;;4879312;29;20205;-91
2022/04/10 00:40:29;;;;;;;8.20;2.73;;;3.20;87.10;;;;;;4879383;29;20218;-91
2022/04/10 00:42:55;;;;;;;11.90;3.40;;;3.20;86.90;;;;;;4880569;29;20232;-91
2022/04/10 00:45:20;;;;;;;3.70;1.60;;;3.10;86.80;;;;;;4879711;29;20264;-89
2022/04/10 00:47:46;;;;;;;7.50;2.63;;;3.10;87.20;;;;;;4879664;29;20220;-91
2022/04/10 00:50:14;;;;;;;11.83;3.03;;;3.00;87.50;;;;;;4880555;29;20219;-92
2022/04/10 00:52:42;;;;;;;4.20;2.37;;;3.00;87.50;;;;;;4880784;29;20266;-91
2022/04/10 00:55:08;;;;;;;8.70;2.93;;;2.90;87.60;;;;;;4879154;29;20186;-90
2022/04/10 00:57:34;;;;;;;8.60;3.13;;;3.00;87.60;;;;;;4879351;29;20216;-91
2022/04/10 01:00:00;;;;;;;13.93;2.77;;;3.00;87.70;;;;;;4879171;29;20304;-90
2022/04/10 01:02:26;;;;;;;12.20;3.17;;;3.10;87.90;;;;;;4879218;29;20283;-90
2022/04/10 01:04:51;;;;;;;16.40;3.40;;;3.10;87.90;;;;;;4880210;29;20177;-91
2022/04/10 01:07:18;;;;;;;8.03;2.70;;;3.10;87.80;;;;;;4878766;29;20188;-90
2022/04/10 01:09:45;;;;;;;11.87;3.00;;;3.20;87.90;;;;;;4878910;29;20280;-90
2022/04/10 01:12:11;;;;;;;12.13;3.00;;;3.20;87.90;;;;;;4878827;29;20189;-89
2022/04/10 01:14:38;;;;;;;15.73;3.27;;;3.20;88.00;;;;;;4879029;29;20603;-90
2022/04/10 01:17:07;;;;;;;18.67;3.73;;;3.30;88.10;;;;;;4879102;29;20199;-89
2022/04/10 01:19:33;;;;;;;12.73;3.30;;;3.30;88.50;;;;;;4878806;29;20226;-89
2022/04/10 01:22:03;;;;;;;19.60;4.43;;;3.30;88.60;;;;;;4878982;29;20221;-89
2022/04/10 01:24:29;;;;;;;12.37;3.00;;;3.30;88.90;;;;;;4879599;29;20196;-89
2022/04/10 01:26:54;;;;;;;15.27;3.57;;;3.30;88.70;;;;;;4878954;29;20272;-90
2022/04/10 01:29:20;;;;;;;17.20;4.07;;;3.20;88.60;;;;;;4878635;29;20212;-90
2022/04/10 01:31:47;;;;;;;18.47;4.07;;;3.20;88.80;;;;;;4880248;29;20701;-89
2022/04/10 01:34:14;;;;;;;17.03;3.70;;;3.20;88.80;;;;;;4878791;29;20223;-90
2022/04/10 01:36:41;;;;;;;15.53;3.90;;;3.30;88.80;;;;;;4878583;29;20777;-90
2022/04/10 01:39:09;;;;;;;12.93;3.00;;;3.20;88.80;;;;;;4878761;29;20585;-91
2022/04/10 01:41:35;;;;;;;14.50;3.63;;;3.20;88.80;;;;;;4878648;29;20185;-89
2022/04/10 01:44:02;;;;;;;9.80;4.03;;;3.20;88.80;;;;;;4878746;29;20274;-90
2022/04/10 01:46:30;;;;;;;15.97;3.87;;;3.10;88.80;;;;;;4879631;29;20196;-89
2022/04/10 01:48:56;;;;;;;14.50;3.90;;;3.10;88.90;;;;;;4878440;29;20722;-90
2022/04/10 01:51:23;;;;;;;18.83;4.23;;;3.00;88.80;;;;;;4878625;29;20185;-90
2022/04/10 01:53:49;;;;;;;13.13;3.70;;;2.80;89.00;;;;;;4879519;29;20641;-90
2022/04/10 01:56:15;;;;;;;16.57;3.70;;;2.80;89.20;;;;;;4880125;29;20193;-90
2022/04/10 01:58:43;;;;;;;19.60;4.20;;;2.60;89.20;;;;;;4882146;29;20711;-89
2022/04/10 02:01:11;;;;;;;20.57;3.67;;;2.50;89.40;;;;;;4882360;29;20185;-88
2022/04/10 02:03:37;;;;;;;13.03;3.50;;;2.40;89.60;;;;;;4882328;29;20280;-89
2022/04/10 02:06:05;;;;;;;11.53;4.00;;;2.30;89.90;;;;;;4882230;29;20214;-88
2022/04/10 02:08:31;;;;;;;10.03;3.67;;;2.10;90.20;;;;;;4882190;29;20221;-88
2022/04/10 02:10:57;;;;;;;6.00;3.40;;;2.10;90.50;;;;;;4882939;29;20189;-88
2022/04/10 02:13:24;;;;;;;5.63;2.80;;;1.90;90.60;;;;;;4882278;29;20190;-89
2022/04/10 02:15:50;;;;;;;9.63;2.90;;;1.60;90.60;;;;;;4884244;29;20188;-90
2022/04/10 02:18:15;;;;;;;9.60;3.77;;;1.50;90.90;;;;;;4881832;29;20215;-88
2022/04/10 02:20:41;;;;;;;9.20;2.90;;;1.50;90.90;;;;;;4881967;29;20181;-88
2022/04/10 02:23:07;;;;;;;9.60;2.80;;;1.50;91.10;;;;;;4881866;29;20176;-89
2022/04/10 02:25:33;;;;;;;7.07;2.90;;;1.50;91.20;;;;;;4881926;29;20279;-88
2022/04/10 02:27:58;;;;;;;4.67;2.50;;;1.60;91.30;;;;;;4881847;29;20207;-88
2022/04/10 02:30:24;;;;;;;6.07;2.67;;;1.60;91.40;;;;;;4881875;29;20189;-89
2022/04/10 02:32:49;;;;;;;6.90;2.90;;;1.70;91.40;;;;;;4882020;29;20194;-89
2022/04/10 02:35:15;;;;;;;16.60;3.40;;;1.80;91.40;;;;;;4881590;29;20549;-90
2022/04/10 02:37:45;;;;;;;6.03;3.03;;;1.80;91.40;;;;;;4882733;29;20666;-90
2022/04/10 02:40:14;;;;;;;7.20;3.00;;;1.80;91.40;;;;;;4881437;29;20322;-90
2022/04/10 02:42:40;;;;;;;8.93;3.20;;;1.80;91.40;;;;;;4882704;29;20177;-90
2022/04/10 02:45:07;;;;;;;8.57;3.23;;;1.80;91.50;;;;;;4881442;29;20190;-89
2022/04/10 02:47:33;;;;;;;8.87;3.50;;;1.80;91.50;;;;;;4881186;29;20193;-89
2022/04/10 02:49:59;;;;;;;15.43;3.43;;;1.80;91.60;;;;;;4881406;29;20189;-90
2022/04/10 02:52:25;;;;;;;15.27;4.07;;;1.90;91.70;;;;;;4881320;29;20186;-89
2022/04/10 02:54:51;;;;;;;13.17;4.17;;;1.90;91.80;;;;;;4881345;29;20643;-89
2022/04/10 02:57:16;;;;;;;12.27;3.93;;;1.90;92.00;;;;;;4882469;29;20181;-89
2022/04/10 02:59:42;;;;;;;4.27;2.20;;;1.90;92.20;;;;;;4882585;29;20212;-90
2022/04/10 03:02:07;;;;;;;9.47;3.10;;;1.90;92.10;;;;;;4882079;29;20182;-89
2022/04/10 03:04:33;;;;;;;8.03;3.37;;;2.00;92.10;;;;;;4881111;29;20182;-90
2022/04/10 03:06:58;;;;;;;13.33;3.87;;;2.00;92.10;;;;;;4880374;29;20185;-89
2022/04/10 03:09:24;;;;;;;17.33;3.90;;;2.10;91.80;;;;;;4881820;29;20221;-90
2022/04/10 03:11:50;;;;;;;8.67;3.53;;;2.20;91.40;;;;;;4881002;29;20191;-89
2022/04/10 03:14:16;;;;;;;12.80;3.80;;;2.10;91.10;;;;;;4882121;29;20193;-90
2022/04/10 03:16:42;;;;;;;20.67;4.10;;;2.10;91.10;;;;;;4880850;29;20613;-90
2022/04/10 03:19:08;;;;;;;10.50;3.07;;;2.10;91.20;;;;;;4881862;29;20670;-89
2022/04/10 03:21:34;;;;;;;15.53;4.10;;;2.00;91.30;;;;;;4880858;29;20636;-89
2022/04/10 03:24:01;;;;;;;15.63;3.30;;;2.00;91.50;;;;;;4882129;29;20184;-89
2022/04/10 03:26:27;;;;;;;8.50;3.83;;;2.00;91.60;;;;;;4880864;29;20293;-89
2022/04/10 03:28:52;;;;;;;7.93;3.20;;;2.10;91.70;;;;;;4880669;29;20311;-89
2022/04/10 03:31:18;;;;;;;13.40;3.50;;;2.10;91.80;;;;;;4880646;29;20188;-89
2022/04/10 03:33:43;;;;;;;16.20;3.87;;;2.10;91.80;;;;;;4880672;29;20237;-90
2022/04/10 03:36:09;;;;;;;9.30;3.67;;;2.20;91.80;;;;;;4880690;29;20193;-90
2022/04/10 03:38:34;;;;;;;15.10;5.23;;;2.20;91.90;;;;;;4881911;29;20257;-90
2022/04/10 03:41:00;;;;;;;27.93;5.10;;;2.30;91.90;;;;;;4880673;29;20181;-89
2022/04/10 03:43:25;;;;;;;18.93;4.80;;;2.30;91.80;;;;;;4880811;29;20700;-90
2022/04/10 03:45:51;;;;;;;24.33;6.17;;;2.30;91.80;;;;;;4880697;29;20181;-90
2022/04/10 03:48:16;;;;;;;14.57;5.40;;;2.30;91.80;;;;;;4880341;29;20200;-90
2022/04/10 03:50:42;;;;;;;16.97;5.93;;;2.30;91.90;;;;;;4881879;29;20183;-88
2022/04/10 03:53:07;;;;;;;12.63;5.50;;;2.30;91.90;;;;;;4880513;29;20246;-89
2022/04/10 03:55:33;;;;;;;19.83;7.23;;;2.40;91.90;;;;;;4880533;29;20686;-90
2022/04/10 03:57:59;;;;;;;21.03;6.63;;;2.40;91.90;;;;;;4881835;29;20742;-89
2022/04/10 04:00:24;;;;;;;21.37;7.57;;;2.40;91.90;;;;;;4881995;29;20211;-88
2022/04/10 04:02:50;;;;;;;17.33;6.57;;;2.40;92.00;;;;;;4880516;29;20179;-88
2022/04/10 04:05:15;;;;;;;18.93;5.97;;;2.50;91.90;;;;;;4880317;29;20181;-87
2022/04/10 04:07:42;;;;;;;15.93;5.80;;;2.50;91.80;;;;;;4881848;29;20212;-89
2022/04/10 04:10:08;;;;;;;24.07;6.70;;;2.50;91.70;;;;;;4880932;29;20181;-89
2022/04/10 04:12:35;;;;;;;15.20;5.70;;;2.50;91.60;;;;;;4880228;29;20660;-89
2022/04/10 04:15:00;;;;;;;21.20;5.47;;;2.40;91.40;;;;;;4880393;29;20583;-89
2022/04/10 04:17:26;;;;;;;21.03;5.77;;;2.40;91.70;;;;;;4880396;29;20239;-88
2022/04/10 04:19:53;;;;;;;20.90;5.97;;;2.50;91.70;;;;;;4880275;29;20304;-89
2022/04/10 04:22:19;;;;;;;27.63;6.50;;;2.40;91.70;;;;;;4881635;29;20173;-89
2022/04/10 04:24:44;;;;;;;20.77;5.63;;;2.40;91.80;;;;;;4880303;29;20178;-88
2022/04/10 04:27:10;;;;;;;24.07;6.83;;;2.50;91.80;;;;;;4880776;29;20180;-89
2022/04/10 04:29:36;;;;;;;23.77;6.33;;;2.50;91.70;;;;;;4880592;29;20207;-89
2022/04/10 04:32:02;;;;;;;27.23;6.93;;;2.40;91.70;;;;;;4880484;29;20188;-89
2022/04/10 04:34:28;;;;;;;21.03;5.80;;;2.40;91.70;;;;;;4880596;29;20197;-88
2022/04/10 04:36:53;;;;;;;18.03;5.77;;;2.50;91.80;;;;;;4881239;29;20185;-89
2022/04/10 04:39:19;;;;;;;25.13;5.60;;;2.50;91.80;;;;;;4880009;29;20250;-89
2022/04/10 04:41:45;;;;;;;28.67;7.30;;;2.50;91.80;;;;;;4879847;29;20237;-88
2022/04/10 04:44:11;;;;;;;25.93;6.37;;;2.50;91.80;;;;;;4879740;29;20665;-89
2022/04/10 04:46:36;;;;;;;25.70;6.27;;;2.50;91.80;;;;;;4879717;29;20184;-88
2022/04/10 04:49:03;;;;;;;21.13;6.87;;;2.50;91.80;;;;;;4879742;29;20235;-89
2022/04/10 04:51:29;;;;;;;21.00;5.50;;;2.60;91.70;;;;;;4880513;29;20194;-88
2022/04/10 04:53:54;;;;;;;22.50;7.10;;;2.60;91.70;;;;;;4879844;29;20187;-89
2022/04/10 04:56:20;;;;;;;21.47;6.03;;;2.60;91.70;;;;;;4879655;29;20231;-88
2022/04/10 04:58:47;;;;;;;22.60;5.20;;;2.50;91.50;;;;;;4880690;29;20238;-89
2022/04/10 05:01:13;;;;;;;23.97;6.07;;;2.50;91.30;;;;;;4881062;29;20178;-88
2022/04/10 05:03:39;;;;;;;22.97;5.90;;;2.50;91.20;;;;;;4881508;29;20236;-89
2022/04/10 05:06:04;;;;;;;17.47;4.80;;;2.50;91.20;;;;;;4881490;29;20173;-89
2022/04/10 05:08:30;;;;;;;26.77;6.17;;;2.50;91.00;;;;;;4879887;29;20354;-87
2022/04/10 05:10:55;;;;;;;23.10;5.20;;;2.40;90.90;;;;;;4880620;29;20195;-88
2022/04/10 05:13:21;;;;;;;23.17;4.70;;;2.40;90.80;;;;;;4879901;29;20177;-88
2022/04/10 05:15:47;;;;;;;35.03;5.10;;;2.50;90.60;;;;;;4881611;29;20180;-88
2022/04/10 05:18:13;;;;;;;21.20;5.40;;;2.50;90.40;;;;;;4880269;29;20204;-88
2022/04/10 05:20:39;;;;;;;23.83;4.70;;;2.60;90.20;;;;;;4879269;29;20212;-89
2022/04/10 05:23:05;;;;;;;18.60;5.03;;;2.60;90.00;;;;;;4880233;29;20218;-88
2022/04/10 05:25:31;;;;;;;20.97;5.10;;;2.60;90.00;;;;;;4879215;29;20676;-89
2022/04/10 05:27:56;;;;;;;22.30;4.60;;;2.60;89.80;;;;;;4879797;29;20192;-89
2022/04/10 05:30:23;;;;;;;25.40;5.40;;;2.60;89.70;;;;;;4880048;29;20212;-89
2022/04/10 05:32:48;;;;;;;34.93;5.73;;;2.70;89.70;;;;;;4879289;29;20238;-89
2022/04/10 05:35:14;;;;;;;17.10;4.70;;;2.70;89.70;;;;;;4878681;29;20178;-89
2022/04/10 05:37:39;;;;;;;23.03;5.03;;;2.70;89.80;;;;;;4879896;29;20198;-89
2022/04/10 05:40:06;;;;;;;22.30;5.53;;;2.70;89.80;;;;;;4878693;29;20624;-89
2022/04/10 05:42:31;;;;;;;16.93;5.07;;;2.80;89.80;;;;;;4878885;29;20253;-90
2022/04/10 05:45:04;;;;;;;22.80;4.83;;;2.90;89.50;;;;;;4878960;29;20644;-89
2022/04/10 05:47:29;;;;;;;21.87;4.83;;;2.80;89.30;;;;;;4878611;29;20667;-90
2022/04/10 05:49:55;;;;;;;25.07;5.10;;;2.80;89.30;;;;;;4878739;29;20194;-89
2022/04/10 05:52:21;;;;;;;20.43;4.87;;;2.80;89.30;;;;;;4878446;29;20240;-89
2022/04/10 05:54:46;;;;;;;17.53;4.63;;;2.90;89.40;;;;;;4878864;29;20269;-89
2022/04/10 05:57:12;;;;;;;19.50;5.00;;;3.00;89.50;;;;;;4878739;29;20189;-89
2022/04/10 05:59:37;;;;;;;17.13;4.60;;;3.30;89.80;;;;;;4878359;29;20206;-89
2022/04/10 06:02:03;;;;;;;19.63;4.57;;;3.40;89.60;;;;;;4879460;29;20178;-89
2022/04/10 06:04:28;;;;;;;14.57;3.93;;;3.60;89.70;;;;;;4878357;29;20181;-89
2022/04/10 06:06:54;;;;;;;16.57;4.13;;;3.50;89.40;;;;;;4879794;29;20258;-89
2022/04/10 06:09:20;;;;;;;19.07;4.17;;;3.40;89.10;;;;;;4880041;29;20220;-92
2022/04/10 06:11:45;;;;;;;10.20;3.00;;;3.00;88.80;;;;;;4878872;29;20291;-88
2022/04/10 06:14:11;;;;;;;12.27;3.27;;;2.80;89.10;;;;;;4878325;29;20221;-89
2022/04/10 06:16:36;;;;;;;15.27;3.40;;;2.70;89.50;;;;;;4878359;29;20181;-88
2022/04/10 06:19:02;;;;;;;11.20;3.80;;;2.80;90.10;;;;;;4878414;29;20228;-87
2022/04/10 06:21:27;;;;;;;13.83;3.90;;;2.80;90.50;;;;;;4878447;29;20671;-89
2022/04/10 06:23:53;;;;;;;19.50;4.03;;;2.80;90.80;;;;;;4878309;29;20269;-88
2022/04/10 06:26:18;;;;;;;10.00;3.80;;;2.80;91.10;;;;;;4878524;29;20187;-90
2022/04/10 06:28:44;;;;;;;9.50;3.87;;;3.00;91.20;;;;;;4879921;29;20201;-88
2022/04/10 06:31:09;;;;;;;13.00;3.37;;;3.00;91.30;;;;;;4880035;29;20625;-89
2022/04/10 06:33:35;;;;;;;12.33;3.33;;;3.00;91.20;;;;;;4879193;29;20193;-89
2022/04/10 06:36:00;;;;;;;13.40;4.00;;;3.00;91.30;;;;;;4879540;29;20182;-91
2022/04/10 06:38:26;;;;;;;13.30;3.90;;;3.10;91.40;;;;;;4879418;29;20334;-91
2022/04/10 06:40:51;;;;;;;7.37;2.90;;;3.10;91.10;;;;;;4879241;29;20185;-90
2022/04/10 06:43:19;;;;;;;16.43;5.07;;;3.20;91.20;;;;;;4882188;29;20192;-89
2022/04/10 06:45:46;;;;;;;28.53;4.57;;;3.10;91.10;;;;;;4881873;29;20186;-90
2022/04/10 06:48:11;;;;;;;24.13;3.80;;;3.10;91.00;;;;;;4881701;29;20574;-90
2022/04/10 06:50:37;;;;;;;11.40;3.70;;;3.20;91.00;;;;;;4882554;29;20249;-89
2022/04/10 06:53:02;;;;;;;18.80;3.97;;;3.30;90.80;;;;;;4881376;29;20195;-89
2022/04/10 06:55:28;;;;;;;12.83;3.60;;;3.40;90.60;;;;;;4883221;29;20178;-89
2022/04/10 06:57:53;;;;;;;15.77;3.73;;;3.50;90.70;;;;;;4883260;29;20205;-89
2022/04/10 07:00:19;;;;;;;13.50;3.83;;;3.60;90.70;;;;;;4881727;29;20216;-90
2022/04/10 07:02:45;;;;;;;14.27;3.33;;;3.70;90.70;;;;;;4882879;29;20185;-88
2022/04/10 07:05:11;;;;;;;15.90;4.37;;;3.80;90.50;;;;;;4890568;29;20182;-87
2022/04/10 07:07:36;;;;;;;23.27;4.07;;;3.90;90.40;;;;;;4890564;29;20581;-89
2022/04/10 07:10:02;;;;;;;17.17;4.47;;;4.00;90.40;;;;;;4889884;29;20185;-89
2022/04/10 07:12:28;;;;;;;20.07;5.13;;;4.00;90.00;;;;;;4883113;29;20174;-90
2022/04/10 07:14:53;;;;;;;20.57;5.40;;;4.20;90.00;;;;;;4881925;29;20561;-88
2022/04/10 07:17:19;;;;;;;24.80;4.80;;;4.30;89.80;;;;;;4882772;29;20554;-89
2022/04/10 07:19:45;;;;;;;25.93;5.20;;;4.30;89.40;;;;;;4881525;29;20209;-90
2022/04/10 07:24:55;;;;;;;9.57;2.80;;;4.60;89.20;;;;;;4883029;29;20169;-89
2022/04/10 07:27:21;;;;;;;16.17;3.67;;;4.70;88.60;;;;;;4883359;29;20667;-88
2022/04/10 07:29:46;;;;;;;25.27;4.77;;;4.80;88.40;;;;;;4885505;29;20183;-87
2022/04/10 07:32:12;;;;;;;30.23;4.93;;;5.00;88.50;;;;;;4883624;29;20281;-87
2022/04/10 07:34:37;;;;;;;23.20;5.87;;;5.00;88.00;;;;;;4883812;29;20210;-87
2022/04/10 07:37:03;;;;;;;19.43;5.20;;;5.10;87.60;;;;;;4885456;29;20256;-87
2022/04/10 07:39:29;;;;;;;23.10;4.50;;;5.30;88.10;;;;;;4884329;29;20210;-89
2022/04/10 07:41:54;;;;;;;22.13;5.47;;;5.10;86.60;;;;;;4884843;29;20551;-87
2022/04/10 07:44:20;;;;;;;25.47;5.20;;;4.90;86.20;;;;;;4884922;29;20202;-87
2022/04/10 07:49:29;;;;;;;12.43;3.13;;;4.80;87.30;;;;;;4883499;29;20217;-89
2022/04/10 07:51:55;;;;;;;7.00;2.70;;;4.30;86.30;;;;;;4881133;29;20193;-88
2022/04/10 07:54:20;;;;;;;15.03;3.57;;;4.10;86.80;;;;;;4882456;29;20317;-89
2022/04/10 07:56:46;;;;;;;8.53;2.30;;;4.10;87.20;;;;;;4884425;29;20217;-87
2022/04/10 07:59:12;;;;;;;7.03;2.63;;;4.10;87.20;;;;;;4884249;29;20202;-88
2022/04/10 08:01:38;;;;;;;16.00;3.40;;;4.20;86.40;;;;;;4881670;29;20668;-89
2022/04/10 08:04:04;;;;;;;4.53;2.20;;;4.40;86.20;;;;;;4881599;29;20211;-89
2022/04/10 08:06:29;;;;;;;10.60;2.73;;;4.30;84.90;;;;;;4881500;29;20182;-89
2022/04/10 08:08:55;;;;;;;13.03;3.00;;;4.30;84.70;;;;;;4881105;29;20605;-88
2022/04/10 08:11:20;;;;;;;8.43;3.10;;;4.40;84.20;;;;;;4881096;29;20231;-88
2022/04/10 08:13:46;;;;;;;14.73;3.13;;;4.60;85.40;;;;;;4881727;29;20234;-89
2022/04/10 08:16:14;;;;;;;11.73;2.60;;;4.60;85.40;;;;;;4881336;29;20652;-87
2022/04/10 08:18:39;;;;;;;13.07;3.00;;;4.50;84.80;;;;;;4882655;29;20250;-89
2022/04/10 08:21:06;;;;;;;14.30;2.93;;;4.50;85.10;;;;;;4881527;29;20649;-86
2022/04/10 08:23:32;;;;;;;17.50;3.33;;;4.60;84.90;;;;;;4882789;29;20210;-88
2022/04/10 08:25:57;;;;;;;12.23;3.80;;;5.00;85.70;;;;;;4880927;29;20182;-88
2022/04/10 08:28:23;;;;;;;11.43;2.97;;;4.90;84.40;;;;;;4881361;29;20210;-89
2022/04/10 08:30:48;;;;;;;12.63;3.10;;;4.80;84.30;;;;;;4882446;29;20186;-88
2022/04/10 08:33:14;;;;;;;8.40;2.80;;;4.80;84.00;;;;;;4882196;29;20291;-88
2022/04/10 08:35:39;;;;;;;8.90;2.87;;;5.00;83.60;;;;;;4881637;29;20209;-90
2022/04/10 08:38:05;;;;;;;14.43;3.20;;;5.10;83.70;;;;;;4881307;29;20779;-88
2022/04/10 08:40:32;;;;;;;11.73;2.70;;;5.20;83.90;;;;;;4882601;29;20203;-88
2022/04/10 08:43:02;;;;;;;9.60;2.80;;;5.30;83.80;;;;;;4882341;29;20589;-89
2022/04/10 08:45:28;;;;;;;15.93;2.63;;;5.50;84.10;;;;;;4880984;29;20718;-89
2022/04/10 08:47:55;;;;;;;8.87;2.57;;;5.60;83.90;;;;;;4881678;29;20195;-88
2022/04/10 08:50:23;;;;;;;14.67;3.70;;;5.50;82.40;;;;;;4881023;29;20195;-90
2022/04/10 08:52:52;;;;;;;16.17;3.40;;;5.80;83.30;;;;;;4882422;29;20196;-88
2022/04/10 08:55:19;;;;;;;22.13;3.53;;;5.90;82.60;;;;;;4880112;29;20192;-89
2022/04/10 08:57:44;;;;;;;12.40;3.03;;;6.00;82.20;;;;;;4886603;29;20282;-90
2022/04/10 09:00:11;;;;;;;7.90;2.73;;;5.90;81.20;;;;;;4889867;29;20219;-86
2022/04/10 09:02:47;;;;;;;12.47;3.10;;;5.90;81.00;;;;;;4889195;29;20222;-87
2022/04/10 09:05:24;;;;;;;8.73;2.67;;;6.00;80.00;;;;;;4881864;29;20279;-88
2022/04/10 09:08:12;;;;;;;14.47;3.17;;;6.00;79.20;;;;;;4881081;29;20237;-88
2022/04/10 09:10:58;;;;;;;12.07;3.37;;;6.30;80.50;;;;;;4880158;29;20310;-90
2022/04/10 09:13:34;;;;;;;14.63;3.43;;;6.40;77.60;;;;;;4883167;29;20195;-89
2022/04/10 09:16:15;;;;;;;13.40;3.23;;;6.40;77.90;;;;;;4880555;29;20189;-89
2022/04/10 09:18:50;;;;;;;16.57;3.30;;;6.80;79.20;;;;;;4880417;29;20215;-88
2022/04/10 09:21:18;;;;;;;14.27;3.30;;;6.70;76.50;;;;;;4882722;29;20176;-90
2022/04/10 09:23:52;;;;;;;10.30;2.90;;;6.90;78.80;;;;;;4882896;29;20265;-89
2022/04/10 09:26:18;;;;;;;14.57;3.23;;;7.00;79.90;;;;;;4880432;29;20177;-88
2022/04/10 09:28:45;;;;;;;20.17;5.23;;;6.70;76.80;;;;;;4881768;29;20688;-89
2022/04/10 09:31:32;;;;;;;4.17;2.00;;;6.90;78.60;;;;;;4882070;29;20188;-89
2022/04/10 09:34:00;;;;;;;14.23;2.97;;;6.70;75.90;;;;;;4880976;29;20255;-89
2022/04/10 09:36:34;;;;;;;9.90;3.10;;;6.80;77.60;;;;;;4879543;29;20201;-89
2022/04/10 09:39:00;;;;;;;11.37;2.53;;;7.10;77.80;;;;;;4880398;29;20217;-89
2022/04/10 09:41:26;;;;;;;13.23;3.27;;;7.10;77.90;;;;;;4880343;29;20675;-89
2022/04/10 09:43:51;;;;;;;11.97;2.77;;;7.30;78.40;;;;;;4879915;29;20190;-89
2022/04/10 09:46:17;;;;;;;9.90;2.60;;;7.00;75.50;;;;;;4881106;29;20205;-89
2022/04/10 09:48:43;;;;;;;11.90;2.70;;;7.10;77.10;;;;;;4880008;29;20243;-88
2022/04/10 09:51:11;;;;;;;5.93;2.73;;;7.40;78.50;;;;;;4879549;29;20177;-89
2022/04/10 09:53:37;;;;;;;11.57;2.70;;;7.20;76.10;;;;;;4880049;29;20556;-88
2022/04/10 09:56:05;;;;;;;11.73;2.30;;;6.80;76.90;;;;;;4880189;29;20186;-88
2022/04/10 09:58:32;;;;;;;14.93;2.83;;;7.00;76.20;;;;;;4880752;29;20198;-88
2022/04/10 10:00:59;;;;;;;13.20;2.90;;;7.20;77.70;;;;;;4880155;29;20186;-88
2022/04/10 10:03:30;;;;;;;12.87;4.07;;;7.20;72.90;;;;;;4880402;29;20206;-89
2022/04/10 10:05:57;;;;;;;7.90;2.63;;;7.30;71.50;;;;;;4879739;29;20657;-89
2022/04/10 10:08:24;;;;;;;10.43;2.77;;;7.40;72.90;;;;;;4879131;29;20313;-89
2022/04/10 10:10:50;;;;;;;8.20;3.07;;;7.30;69.00;;;;;;4880788;29;20182;-89
2022/04/10 10:13:16;;;;;;;10.40;2.60;;;7.50;68.00;;;;;;4880131;29;20254;-92
2022/04/10 10:15:43;;;;;;;20.67;2.70;;;7.30;64.90;;;;;;4880223;29;20185;-90
2022/04/10 10:18:11;;;;;;;10.50;2.93;;;7.60;66.60;;;;;;4887888;29;20206;-92
2022/04/10 10:20:38;;;;;;;12.90;3.60;;;7.90;66.50;;;;;;4890002;29;20644;-92
2022/04/10 10:23:08;;;;;;;8.07;2.40;;;8.00;67.50;;;;;;4892113;29;20189;-87
2022/04/10 10:25:47;;;;;;;10.50;2.63;;;8.30;67.90;;;;;;4893928;29;20654;-87
2022/04/10 10:28:47;;;;;;;13.97;3.20;;;8.20;67.10;;;;;;4889114;29;20209;-87
2022/04/10 10:31:37;;;;;;;13.53;3.27;;;7.80;71.00;;;;;;4894206;29;20162;-86
2022/04/10 10:34:07;;;;;;;13.70;2.83;;;8.00;72.30;;;;;;4888772;29;20174;-86
2022/04/10 10:36:33;;;;;;;13.23;3.03;;;8.00;70.30;;;;;;4887914;29;20193;-88
2022/04/10 10:38:59;;;;;;;18.57;3.67;;;8.00;70.80;;;;;;4885948;29;20579;-88
2022/04/10 10:41:25;;;;;;;16.10;3.10;;;8.10;68.00;;;;;;4884869;29;20182;-87
2022/04/10 10:43:51;;;;;;;16.77;3.23;;;8.20;66.80;;;;;;4885598;29;20241;-89
2022/04/10 10:46:32;;;;;;;8.13;2.30;;;8.30;67.90;;;;;;4884432;29;20182;-89
2022/04/10 10:49:18;;;;;;;10.60;3.50;;;8.20;66.90;;;;;;4885853;29;20205;-88
2022/04/10 10:51:55;;;;;;;7.13;2.13;;;8.30;65.70;;;;;;4886056;29;20186;-87
2022/04/10 10:54:32;;;;;;;12.80;3.07;;;8.20;66.60;;;;;;4886878;29;20162;-87
2022/04/10 10:56:59;;;;;;;14.43;3.00;;;8.40;68.10;;;;;;4885696;29;20182;-88
2022/04/10 10:59:38;;;;;;;19.17;4.27;;;8.10;68.20;;;;;;4885192;29;20214;-87
2022/04/10 11:02:14;;;;;;;18.93;3.33;;;7.70;67.50;;;;;;4885910;29;20174;-88
2022/04/10 11:04:45;;;;;;;11.53;3.23;;;8.00;69.10;;;;;;4887157;29;20245;-87
2022/04/10 11:07:20;;;;;;;9.83;3.07;;;7.50;69.30;;;;;;4888123;29;20227;-87
2022/04/10 11:09:53;;;;;;;8.90;3.23;;;7.20;70.50;;;;;;4886742;29;20221;-88
2022/04/10 11:12:23;;;;;;;11.90;2.90;;;7.20;72.40;;;;;;4881133;29;20222;-89
2022/04/10 11:14:52;;;;;;;10.90;2.97;;;7.30;73.30;;;;;;4882252;29;20162;-88
2022/04/10 11:17:27;;;;;;;10.10;3.37;;;7.10;73.20;;;;;;4881162;29;20205;-89
2022/04/10 11:19:56;;;;;;;14.77;2.57;;;7.50;73.60;;;;;;4881708;29;20249;-89
2022/04/10 11:22:33;;;;;;;14.20;2.50;;;7.70;68.90;;;;;;4880959;29;20213;-86
2022/04/10 11:25:05;;;;;;;6.97;2.60;;;8.00;67.50;;;;;;4880922;29;20218;-88
2022/04/10 11:27:48;;;;;;;10.37;3.07;;;8.10;66.90;;;;;;4882204;29;20165;-89
2022/04/10 11:30:31;;;;;;;4.17;2.10;;;8.50;67.80;;;;;;4881489;29;20162;-89
2022/04/10 11:32:57;;;;;;;13.27;3.00;;;8.60;61.30;;;;;;4881225;29;20182;-88
2022/04/10 11:35:25;;;;;;;8.43;2.43;;;8.50;61.30;;;;;;4881586;29;20196;-89
2022/04/10 11:37:53;;;;;;;9.03;2.37;;;8.50;61.60;;;;;;4885943;29;20669;-86
2022/04/10 11:40:41;;;;;;;10.37;2.63;;;8.50;59.50;;;;;;4881987;29;20211;-88
2022/04/10 11:43:11;;;;;;;9.87;3.07;;;8.50;61.80;;;;;;4880619;29;20182;-89
2022/04/10 11:45:37;;;;;;;14.50;2.97;;;8.80;61.80;;;;;;4881915;29;20163;-89
2022/04/10 11:48:05;;;;;;;15.73;2.77;;;8.70;61.70;;;;;;4880463;29;20209;-89
2022/04/10 11:50:31;;;;;;;12.63;3.10;;;8.90;61.60;;;;;;4882036;29;20182;-89
2022/04/10 11:53:13;;;;;;;12.23;2.47;;;9.20;61.60;;;;;;4881542;29;20642;-89
2022/04/10 11:55:40;;;;;;;13.83;3.10;;;9.30;63.40;;;;;;4880670;29;20189;-88
2022/04/10 11:58:10;;;;;;;6.37;2.73;;;9.10;62.00;;;;;;4883520;29;20210;-90
2022/04/10 12:00:35;;;;;;;10.10;3.13;;;9.20;61.20;;;;;;4880419;29;20217;-86
2022/04/10 12:03:01;;;;;;;13.13;2.53;;;9.40;63.20;;;;;;4880587;29;20183;-89
2022/04/10 12:05:31;;;;;;;13.73;2.90;;;9.60;61.00;;;;;;4880637;29;20597;-90
2022/04/10 12:08:01;;;;;;;13.63;2.90;;;9.80;60.90;;;;;;4880364;29;20232;-90
2022/04/10 12:10:27;;;;;;;17.73;3.17;;;9.50;62.30;;;;;;4881836;29;20188;-89
2022/04/10 12:12:53;;;;;;;14.30;3.40;;;9.70;62.80;;;;;;4880188;29;20183;-89
2022/04/10 12:15:20;;;;;;;16.27;2.97;;;9.00;61.90;;;;;;4880075;29;20190;-87
2022/04/10 12:17:46;;;;;;;12.40;2.37;;;8.90;64.60;;;;;;4880139;29;20205;-89
2022/04/10 12:20:13;;;;;;;7.57;2.37;;;8.40;67.60;;;;;;4880255;29;20305;-86
2022/04/10 12:22:38;;;;;;;10.67;2.40;;;7.90;72.90;;;;;;4880145;29;20175;-87
2022/04/10 12:25:05;;;;;;;12.63;2.90;;;8.20;74.80;;;;;;4880209;29;20696;-90
2022/04/10 12:27:31;;;;;;;10.83;2.67;;;8.50;75.50;;;;;;4879839;29;20186;-89
2022/04/10 12:29:57;;;;;;;10.00;3.00;;;8.50;75.10;;;;;;4879918;29;20246;-88
2022/04/10 12:32:24;;;;;;;18.03;3.33;;;8.70;73.40;;;;;;4880177;29;20205;-89
2022/04/10 12:34:52;;;;;;;15.23;3.17;;;8.80;72.50;;;;;;4879814;29;20273;-89
2022/04/10 12:37:19;;;;;;;9.90;2.57;;;8.80;72.20;;;;;;4879873;29;20181;-89
2022/04/10 12:39:48;;;;;;;8.20;2.60;;;8.70;71.10;;;;;;4879223;29;20610;-88
2022/04/10 12:42:20;;;;;;;8.67;2.47;;;8.80;67.00;;;;;;4880773;29;20178;-89
2022/04/10 12:44:55;;;;;;;11.93;3.00;;;8.60;63.50;;;;;;4879960;29;20174;-88
2022/04/10 12:47:44;;;;;;;12.03;2.63;;;8.80;63.20;;;;;;4879657;29;20178;-89
2022/04/10 12:50:12;;;;;;;16.90;3.23;;;8.90;63.90;;;;;;4879697;29;20231;-88
2022/04/10 12:52:39;;;;;;;10.17;2.67;;;8.80;62.50;;;;;;4881447;29;20202;-89
2022/04/10 12:55:30;;;;;;;17.10;3.30;;;8.30;64.00;;;;;;4879816;29;20186;-88